sensor_id;sensor_type;location;lat;lon;timestamp;P1;durP1;ratioP1;P2;durP2;ratioP2
37051;SDS011;22964;52.272;13.356;2024-01-16T00:01:23;3.10;;;1.40;;
37051;SDS011;22964;52.272;13.356;2024-01-16T00:03:49;2.38;;;1.30;;
37051;SDS011;22964;52.272;13.356;2024-01-16T00:06:16;2.47;;;1.30;;
37051;SDS011;22964;52.272;13.356;2024-01-16T00:08:41;2.88;;;1.40;;
37051;SDS011;22964;52.272;13.356;2024-01-16T00:11:07;3.17;;;1.40;;
37051;SDS011;22964;52.272;13.356;2024-01-16T00:13:33;2.67;;;1.25;;
37051;SDS011;22964;52.272;13.356;2024-01-16T00:15:58;2.72;;;1.25;;
37051;SDS011;22964;52.272;13.356;2024-01-16T00:18:26;4.45;;;1.48;;
37051;SDS011;22964;52.272;13.356;2024-01-16T00:20:52;7.15;;;1.85;;
37051;SDS011;22964;52.272;13.356;2024-01-16T00:23:17;3.88;;;1.58;;
37051;SDS011;22964;52.272;13.356;2024-01-16T00:25:43;4.03;;;1.40;;
37051;SDS011;22964;52.272;13.356;2024-01-16T00:28:09;3.83;;;1.60;;
37051;SDS011;22964;52.272;13.356;2024-01-16T00:30:35;1.45;;;1.08;;
37051;SDS011;22964;52.272;13.356;2024-01-16T00:33:01;2.17;;;1.10;;
37051;SDS011;22964;52.272;13.356;2024-01-16T00:35:27;2.75;;;1.10;;
37051;SDS011;22964;52.272;13.356;2024-01-16T00:37:53;2.42;;;1.10;;
37051;SDS011;22964;52.272;13.356;2024-01-16T00:40:19;3.17;;;1.20;;
37051;SDS011;22964;52.272;13.356;2024-01-16T00:42:45;3.42;;;1.00;;
37051;SDS011;22964;52.272;13.356;2024-01-16T00:45:10;2.10;;;1.05;;
37051;SDS011;22964;52.272;13.356;2024-01-16T00:47:36;5.30;;;1.70;;
37051;SDS011;22964;52.272;13.356;2024-01-16T00:50:02;3.30;;;1.20;;
37051;SDS011;22964;52.272;13.356;2024-01-16T00:52:28;3.38;;;1.38;;
37051;SDS011;22964;52.272;13.356;2024-01-16T00:54:54;3.25;;;1.25;;
37051;SDS011;22964;52.272;13.356;2024-01-16T00:57:19;4.10;;;1.40;;
37051;SDS011;22964;52.272;13.356;2024-01-16T00:59:45;4.25;;;1.50;;
37051;SDS011;22964;52.272;13.356;2024-01-16T01:02:12;2.28;;;1.20;;
37051;SDS011;22964;52.272;13.356;2024-01-16T01:04:38;3.55;;;1.10;;
37051;SDS011;22964;52.272;13.356;2024-01-16T01:07:03;4.35;;;1.10;;
37051;SDS011;22964;52.272;13.356;2024-01-16T01:09:31;2.55;;;1.00;;
37051;SDS011;22964;52.272;13.356;2024-01-16T01:11:57;2.88;;;1.00;;
37051;SDS011;22964;52.272;13.356;2024-01-16T01:14:23;3.63;;;1.20;;
37051;SDS011;22964;52.272;13.356;2024-01-16T01:16:50;4.25;;;1.35;;
37051;SDS011;22964;52.272;13.356;2024-01-16T01:19:16;2.03;;;1.13;;
37051;SDS011;22964;52.272;13.356;2024-01-16T01:21:42;3.08;;;1.30;;
37051;SDS011;22964;52.272;13.356;2024-01-16T01:24:08;4.00;;;1.40;;
37051;SDS011;22964;52.272;13.356;2024-01-16T01:26:34;3.35;;;1.50;;
37051;SDS011;22964;52.272;13.356;2024-01-16T01:29:00;3.95;;;1.77;;
37051;SDS011;22964;52.272;13.356;2024-01-16T01:31:26;6.10;;;2.17;;
37051;SDS011;22964;52.272;13.356;2024-01-16T01:33:52;3.30;;;2.10;;
37051;SDS011;22964;52.272;13.356;2024-01-16T01:36:18;4.57;;;2.10;;
37051;SDS011;22964;52.272;13.356;2024-01-16T01:38:44;3.67;;;2.08;;
37051;SDS011;22964;52.272;13.356;2024-01-16T01:41:09;3.75;;;2.30;;
37051;SDS011;22964;52.272;13.356;2024-01-16T01:43:37;4.47;;;2.78;;
37051;SDS011;22964;52.272;13.356;2024-01-16T01:48:44;4.00;;;2.10;;
37051;SDS011;22964;52.272;13.356;2024-01-16T01:51:13;4.47;;;1.50;;
37051;SDS011;22964;52.272;13.356;2024-01-16T01:53:40;5.30;;;1.60;;
37051;SDS011;22964;52.272;13.356;2024-01-16T01:56:08;2.75;;;1.20;;
37051;SDS011;22964;52.272;13.356;2024-01-16T01:58:38;2.67;;;1.30;;
37051;SDS011;22964;52.272;13.356;2024-01-16T02:01:06;2.63;;;1.20;;
37051;SDS011;22964;52.272;13.356;2024-01-16T02:03:34;3.00;;;1.30;;
37051;SDS011;22964;52.272;13.356;2024-01-16T02:06:06;2.85;;;1.30;;
37051;SDS011;22964;52.272;13.356;2024-01-16T02:08:32;3.58;;;1.65;;
37051;SDS011;22964;52.272;13.356;2024-01-16T02:10:58;2.63;;;1.30;;
37051;SDS011;22964;52.272;13.356;2024-01-16T02:13:24;2.75;;;1.17;;
37051;SDS011;22964;52.272;13.356;2024-01-16T02:15:50;3.00;;;1.40;;
37051;SDS011;22964;52.272;13.356;2024-01-16T02:18:16;4.45;;;1.50;;
37051;SDS011;22964;52.272;13.356;2024-01-16T02:20:43;2.20;;;1.23;;
37051;SDS011;22964;52.272;13.356;2024-01-16T02:23:09;2.70;;;1.40;;
37051;SDS011;22964;52.272;13.356;2024-01-16T02:25:38;2.65;;;1.20;;
37051;SDS011;22964;52.272;13.356;2024-01-16T02:28:05;3.78;;;1.35;;
37051;SDS011;22964;52.272;13.356;2024-01-16T02:30:30;3.65;;;1.20;;
37051;SDS011;22964;52.272;13.356;2024-01-16T02:32:56;2.80;;;1.30;;
37051;SDS011;22964;52.272;13.356;2024-01-16T02:35:22;1.60;;;1.05;;
37051;SDS011;22964;52.272;13.356;2024-01-16T02:37:48;2.15;;;1.23;;
37051;SDS011;22964;52.272;13.356;2024-01-16T02:40:14;1.85;;;1.20;;
37051;SDS011;22964;52.272;13.356;2024-01-16T02:42:40;2.67;;;1.08;;
37051;SDS011;22964;52.272;13.356;2024-01-16T02:45:06;2.25;;;1.30;;
37051;SDS011;22964;52.272;13.356;2024-01-16T02:47:32;1.42;;;1.10;;
37051;SDS011;22964;52.272;13.356;2024-01-16T02:49:58;3.55;;;1.50;;
37051;SDS011;22964;52.272;13.356;2024-01-16T02:52:25;3.22;;;1.52;;
37051;SDS011;22964;52.272;13.356;2024-01-16T02:54:51;2.50;;;1.23;;
37051;SDS011;22964;52.272;13.356;2024-01-16T02:57:17;2.63;;;1.00;;
37051;SDS011;22964;52.272;13.356;2024-01-16T02:59:43;3.22;;;1.15;;
37051;SDS011;22964;52.272;13.356;2024-01-16T03:02:09;3.88;;;1.08;;
37051;SDS011;22964;52.272;13.356;2024-01-16T03:04:36;2.10;;;1.20;;
37051;SDS011;22964;52.272;13.356;2024-01-16T03:07:02;2.70;;;1.10;;
37051;SDS011;22964;52.272;13.356;2024-01-16T03:09:28;4.30;;;1.17;;
37051;SDS011;22964;52.272;13.356;2024-01-16T03:11:54;2.67;;;0.90;;
37051;SDS011;22964;52.272;13.356;2024-01-16T03:14:20;2.00;;;0.90;;
37051;SDS011;22964;52.272;13.356;2024-01-16T03:16:46;3.17;;;1.15;;
37051;SDS011;22964;52.272;13.356;2024-01-16T03:19:12;2.38;;;1.00;;
37051;SDS011;22964;52.272;13.356;2024-01-16T03:21:37;3.28;;;1.10;;
37051;SDS011;22964;52.272;13.356;2024-01-16T03:24:04;2.85;;;1.17;;
37051;SDS011;22964;52.272;13.356;2024-01-16T03:26:33;4.07;;;1.17;;
37051;SDS011;22964;52.272;13.356;2024-01-16T03:28:59;3.65;;;1.33;;
37051;SDS011;22964;52.272;13.356;2024-01-16T03:31:25;2.08;;;1.00;;
37051;SDS011;22964;52.272;13.356;2024-01-16T03:33:51;2.03;;;1.10;;
37051;SDS011;22964;52.272;13.356;2024-01-16T03:36:16;3.17;;;1.20;;
37051;SDS011;22964;52.272;13.356;2024-01-16T03:38:42;2.05;;;1.10;;
37051;SDS011;22964;52.272;13.356;2024-01-16T03:41:08;2.92;;;1.20;;
37051;SDS011;22964;52.272;13.356;2024-01-16T03:43:36;3.60;;;1.10;;
37051;SDS011;22964;52.272;13.356;2024-01-16T03:46:02;2.17;;;1.15;;
37051;SDS011;22964;52.272;13.356;2024-01-16T03:48:28;2.78;;;1.20;;
37051;SDS011;22964;52.272;13.356;2024-01-16T03:50:54;2.20;;;1.08;;
37051;SDS011;22964;52.272;13.356;2024-01-16T03:53:20;2.85;;;1.30;;
37051;SDS011;22964;52.272;13.356;2024-01-16T03:55:47;2.08;;;1.25;;
37051;SDS011;22964;52.272;13.356;2024-01-16T03:58:12;3.75;;;1.30;;
37051;SDS011;22964;52.272;13.356;2024-01-16T04:00:39;2.97;;;1.40;;
37051;SDS011;22964;52.272;13.356;2024-01-16T04:03:04;3.53;;;1.38;;
37051;SDS011;22964;52.272;13.356;2024-01-16T04:05:32;2.88;;;1.30;;
37051;SDS011;22964;52.272;13.356;2024-01-16T04:07:58;3.70;;;1.35;;
37051;SDS011;22964;52.272;13.356;2024-01-16T04:10:24;3.05;;;1.40;;
37051;SDS011;22964;52.272;13.356;2024-01-16T04:12:49;3.10;;;1.30;;
37051;SDS011;22964;52.272;13.356;2024-01-16T04:15:15;4.65;;;1.42;;
37051;SDS011;22964;52.272;13.356;2024-01-16T04:17:41;3.58;;;1.60;;
37051;SDS011;22964;52.272;13.356;2024-01-16T04:20:07;2.30;;;1.20;;
37051;SDS011;22964;52.272;13.356;2024-01-16T04:22:33;3.95;;;1.40;;
37051;SDS011;22964;52.272;13.356;2024-01-16T04:24:58;3.35;;;1.50;;
37051;SDS011;22964;52.272;13.356;2024-01-16T04:27:24;3.90;;;1.40;;
37051;SDS011;22964;52.272;13.356;2024-01-16T04:29:50;3.10;;;1.42;;
37051;SDS011;22964;52.272;13.356;2024-01-16T04:32:16;3.10;;;1.65;;
37051;SDS011;22964;52.272;13.356;2024-01-16T04:34:42;3.83;;;1.60;;
37051;SDS011;22964;52.272;13.356;2024-01-16T04:37:08;3.17;;;1.63;;
37051;SDS011;22964;52.272;13.356;2024-01-16T04:39:34;2.55;;;1.67;;
37051;SDS011;22964;52.272;13.356;2024-01-16T04:41:59;3.35;;;1.60;;
37051;SDS011;22964;52.272;13.356;2024-01-16T04:44:25;2.22;;;1.42;;
37051;SDS011;22964;52.272;13.356;2024-01-16T04:46:51;4.47;;;1.65;;
37051;SDS011;22964;52.272;13.356;2024-01-16T04:49:17;1.92;;;1.33;;
37051;SDS011;22964;52.272;13.356;2024-01-16T04:51:43;2.63;;;1.40;;
37051;SDS011;22964;52.272;13.356;2024-01-16T04:54:10;2.38;;;1.38;;
37051;SDS011;22964;52.272;13.356;2024-01-16T04:56:37;2.88;;;1.60;;
37051;SDS011;22964;52.272;13.356;2024-01-16T04:59:03;4.00;;;1.58;;
37051;SDS011;22964;52.272;13.356;2024-01-16T05:09:04;5.82;;;3.10;;
37051;SDS011;22964;52.272;13.356;2024-01-16T05:11:30;3.97;;;2.20;;
37051;SDS011;22964;52.272;13.356;2024-01-16T05:13:56;4.15;;;1.80;;
37051;SDS011;22964;52.272;13.356;2024-01-16T05:16:25;3.95;;;1.77;;
37051;SDS011;22964;52.272;13.356;2024-01-16T05:18:51;3.13;;;1.83;;
37051;SDS011;22964;52.272;13.356;2024-01-16T05:21:18;2.70;;;1.73;;
37051;SDS011;22964;52.272;13.356;2024-01-16T05:23:44;4.68;;;1.85;;
37051;SDS011;22964;52.272;13.356;2024-01-16T05:26:09;3.92;;;1.65;;
37051;SDS011;22964;52.272;13.356;2024-01-16T05:28:35;2.42;;;1.50;;
37051;SDS011;22964;52.272;13.356;2024-01-16T05:31:01;3.67;;;1.60;;
37051;SDS011;22964;52.272;13.356;2024-01-16T05:33:27;3.50;;;1.70;;
37051;SDS011;22964;52.272;13.356;2024-01-16T05:35:53;3.58;;;1.80;;
37051;SDS011;22964;52.272;13.356;2024-01-16T05:38:18;3.78;;;1.60;;
37051;SDS011;22964;52.272;13.356;2024-01-16T05:40:44;3.95;;;1.80;;
37051;SDS011;22964;52.272;13.356;2024-01-16T05:43:10;4.53;;;1.90;;
37051;SDS011;22964;52.272;13.356;2024-01-16T05:45:35;4.70;;;1.70;;
37051;SDS011;22964;52.272;13.356;2024-01-16T05:48:01;4.55;;;1.92;;
37051;SDS011;22964;52.272;13.356;2024-01-16T05:50:27;2.67;;;1.73;;
37051;SDS011;22964;52.272;13.356;2024-01-16T05:52:52;3.50;;;1.77;;
37051;SDS011;22964;52.272;13.356;2024-01-16T05:55:18;5.60;;;2.42;;
37051;SDS011;22964;52.272;13.356;2024-01-16T05:57:46;3.70;;;2.30;;
37051;SDS011;22964;52.272;13.356;2024-01-16T06:00:12;4.05;;;2.33;;
37051;SDS011;22964;52.272;13.356;2024-01-16T06:02:38;4.78;;;2.20;;
37051;SDS011;22964;52.272;13.356;2024-01-16T06:05:04;5.07;;;2.20;;
37051;SDS011;22964;52.272;13.356;2024-01-16T06:07:31;4.80;;;2.35;;
37051;SDS011;22964;52.272;13.356;2024-01-16T06:09:56;3.47;;;1.98;;
37051;SDS011;22964;52.272;13.356;2024-01-16T06:12:22;4.13;;;2.30;;
37051;SDS011;22964;52.272;13.356;2024-01-16T06:14:47;3.35;;;1.98;;
37051;SDS011;22964;52.272;13.356;2024-01-16T06:17:13;5.55;;;2.10;;
37051;SDS011;22964;52.272;13.356;2024-01-16T06:19:39;2.90;;;2.00;;
37051;SDS011;22964;52.272;13.356;2024-01-16T06:22:05;4.15;;;2.30;;
37051;SDS011;22964;52.272;13.356;2024-01-16T06:24:30;3.92;;;2.40;;
37051;SDS011;22964;52.272;13.356;2024-01-16T06:27:03;4.03;;;2.47;;
37051;SDS011;22964;52.272;13.356;2024-01-16T06:29:32;4.32;;;2.60;;
37051;SDS011;22964;52.272;13.356;2024-01-16T06:31:58;3.33;;;2.40;;
37051;SDS011;22964;52.272;13.356;2024-01-16T06:34:24;5.63;;;2.25;;
37051;SDS011;22964;52.272;13.356;2024-01-16T06:36:50;4.30;;;2.20;;
37051;SDS011;22964;52.272;13.356;2024-01-16T06:39:15;4.07;;;2.30;;
37051;SDS011;22964;52.272;13.356;2024-01-16T06:41:41;4.32;;;2.40;;
37051;SDS011;22964;52.272;13.356;2024-01-16T06:44:07;4.00;;;2.28;;
37051;SDS011;22964;52.272;13.356;2024-01-16T06:46:34;4.72;;;2.60;;
37051;SDS011;22964;52.272;13.356;2024-01-16T06:49:00;3.55;;;2.38;;
37051;SDS011;22964;52.272;13.356;2024-01-16T06:51:25;4.00;;;2.35;;
37051;SDS011;22964;52.272;13.356;2024-01-16T06:53:52;3.47;;;2.42;;
37051;SDS011;22964;52.272;13.356;2024-01-16T06:56:17;4.90;;;2.75;;
37051;SDS011;22964;52.272;13.356;2024-01-16T06:58:43;5.43;;;2.70;;
37051;SDS011;22964;52.272;13.356;2024-01-16T07:01:09;4.88;;;2.60;;
37051;SDS011;22964;52.272;13.356;2024-01-16T07:03:35;5.50;;;2.40;;
37051;SDS011;22964;52.272;13.356;2024-01-16T07:06:01;3.95;;;2.55;;
37051;SDS011;22964;52.272;13.356;2024-01-16T07:08:27;6.10;;;2.80;;
37051;SDS011;22964;52.272;13.356;2024-01-16T07:10:53;4.55;;;2.45;;
37051;SDS011;22964;52.272;13.356;2024-01-16T07:13:19;4.30;;;2.40;;
37051;SDS011;22964;52.272;13.356;2024-01-16T07:15:45;4.80;;;2.70;;
37051;SDS011;22964;52.272;13.356;2024-01-16T07:18:11;5.07;;;2.80;;
37051;SDS011;22964;52.272;13.356;2024-01-16T07:20:36;3.80;;;2.40;;
37051;SDS011;22964;52.272;13.356;2024-01-16T07:23:03;4.72;;;2.50;;
37051;SDS011;22964;52.272;13.356;2024-01-16T07:25:29;5.07;;;2.70;;
37051;SDS011;22964;52.272;13.356;2024-01-16T07:27:56;4.60;;;2.47;;
37051;SDS011;22964;52.272;13.356;2024-01-16T07:30:21;3.70;;;2.42;;
37051;SDS011;22964;52.272;13.356;2024-01-16T07:32:47;3.92;;;2.85;;
37051;SDS011;22964;52.272;13.356;2024-01-16T07:35:13;3.97;;;2.88;;
37051;SDS011;22964;52.272;13.356;2024-01-16T07:37:40;5.32;;;3.20;;
37051;SDS011;22964;52.272;13.356;2024-01-16T07:40:06;4.47;;;2.92;;
37051;SDS011;22964;52.272;13.356;2024-01-16T07:42:34;5.82;;;3.10;;
37051;SDS011;22964;52.272;13.356;2024-01-16T07:45:01;4.85;;;2.75;;
37051;SDS011;22964;52.272;13.356;2024-01-16T07:47:32;5.82;;;2.90;;
37051;SDS011;22964;52.272;13.356;2024-01-16T07:49:58;5.07;;;3.20;;
37051;SDS011;22964;52.272;13.356;2024-01-16T07:52:27;5.50;;;3.42;;
37051;SDS011;22964;52.272;13.356;2024-01-16T07:54:53;4.43;;;2.88;;
37051;SDS011;22964;52.272;13.356;2024-01-16T07:57:18;6.28;;;2.88;;
37051;SDS011;22964;52.272;13.356;2024-01-16T07:59:44;5.80;;;2.95;;
37051;SDS011;22964;52.272;13.356;2024-01-16T08:02:10;5.40;;;3.38;;
37051;SDS011;22964;52.272;13.356;2024-01-16T08:04:36;4.80;;;3.17;;
37051;SDS011;22964;52.272;13.356;2024-01-16T08:07:01;5.00;;;3.00;;
37051;SDS011;22964;52.272;13.356;2024-01-16T08:09:27;7.53;;;3.30;;
37051;SDS011;22964;52.272;13.356;2024-01-16T08:11:53;5.10;;;3.17;;
37051;SDS011;22964;52.272;13.356;2024-01-16T08:14:19;8.00;;;5.45;;
37051;SDS011;22964;52.272;13.356;2024-01-16T08:16:44;8.27;;;5.95;;
37051;SDS011;22964;52.272;13.356;2024-01-16T08:19:10;8.15;;;4.95;;
37051;SDS011;22964;52.272;13.356;2024-01-16T08:21:36;5.88;;;4.00;;
37051;SDS011;22964;52.272;13.356;2024-01-16T08:24:02;6.65;;;3.40;;
37051;SDS011;22964;52.272;13.356;2024-01-16T08:26:28;7.05;;;3.60;;
37051;SDS011;22964;52.272;13.356;2024-01-16T08:28:53;5.28;;;3.58;;
37051;SDS011;22964;52.272;13.356;2024-01-16T08:31:19;7.47;;;3.40;;
37051;SDS011;22964;52.272;13.356;2024-01-16T08:33:45;6.13;;;3.13;;
37051;SDS011;22964;52.272;13.356;2024-01-16T08:36:14;4.75;;;2.85;;
37051;SDS011;22964;52.272;13.356;2024-01-16T08:38:40;6.47;;;3.10;;
37051;SDS011;22964;52.272;13.356;2024-01-16T08:41:06;6.03;;;3.17;;
37051;SDS011;22964;52.272;13.356;2024-01-16T08:43:32;5.13;;;2.90;;
37051;SDS011;22964;52.272;13.356;2024-01-16T08:45:58;4.55;;;2.63;;
37051;SDS011;22964;52.272;13.356;2024-01-16T08:48:24;4.22;;;2.60;;
37051;SDS011;22964;52.272;13.356;2024-01-16T08:50:51;4.15;;;2.42;;
37051;SDS011;22964;52.272;13.356;2024-01-16T08:53:19;4.22;;;2.40;;
37051;SDS011;22964;52.272;13.356;2024-01-16T08:55:46;4.85;;;2.75;;
37051;SDS011;22964;52.272;13.356;2024-01-16T08:58:11;4.38;;;2.53;;
37051;SDS011;22964;52.272;13.356;2024-01-16T09:00:37;3.92;;;2.60;;
37051;SDS011;22964;52.272;13.356;2024-01-16T09:03:03;3.60;;;2.22;;
37051;SDS011;22964;52.272;13.356;2024-01-16T09:05:29;3.35;;;2.33;;
37051;SDS011;22964;52.272;13.356;2024-01-16T09:07:55;3.92;;;2.25;;
37051;SDS011;22964;52.272;13.356;2024-01-16T09:10:21;3.88;;;2.50;;
37051;SDS011;22964;52.272;13.356;2024-01-16T09:12:46;3.17;;;2.15;;
37051;SDS011;22964;52.272;13.356;2024-01-16T09:15:13;3.60;;;1.98;;
37051;SDS011;22964;52.272;13.356;2024-01-16T09:17:39;3.78;;;2.55;;
37051;SDS011;22964;52.272;13.356;2024-01-16T09:20:05;9.25;;;3.00;;
37051;SDS011;22964;52.272;13.356;2024-01-16T09:22:32;5.78;;;2.75;;
37051;SDS011;22964;52.272;13.356;2024-01-16T09:24:57;4.78;;;2.50;;
37051;SDS011;22964;52.272;13.356;2024-01-16T09:27:23;3.88;;;2.17;;
37051;SDS011;22964;52.272;13.356;2024-01-16T09:29:49;4.10;;;2.10;;
37051;SDS011;22964;52.272;13.356;2024-01-16T09:32:15;4.63;;;2.13;;
37051;SDS011;22964;52.272;13.356;2024-01-16T09:34:40;3.95;;;2.20;;
37051;SDS011;22964;52.272;13.356;2024-01-16T09:37:06;4.07;;;2.13;;
37051;SDS011;22964;52.272;13.356;2024-01-16T09:39:32;4.55;;;2.00;;
37051;SDS011;22964;52.272;13.356;2024-01-16T09:41:59;3.30;;;2.05;;
37051;SDS011;22964;52.272;13.356;2024-01-16T09:44:28;3.70;;;1.95;;
37051;SDS011;22964;52.272;13.356;2024-01-16T09:46:54;4.03;;;2.20;;
37051;SDS011;22964;52.272;13.356;2024-01-16T09:49:22;3.75;;;1.90;;
37051;SDS011;22964;52.272;13.356;2024-01-16T09:51:48;4.25;;;1.80;;
37051;SDS011;22964;52.272;13.356;2024-01-16T09:54:14;3.42;;;1.77;;
37051;SDS011;22964;52.272;13.356;2024-01-16T09:56:43;3.25;;;1.95;;
37051;SDS011;22964;52.272;13.356;2024-01-16T09:59:12;4.57;;;1.88;;
37051;SDS011;22964;52.272;13.356;2024-01-16T10:01:42;3.60;;;1.70;;
37051;SDS011;22964;52.272;13.356;2024-01-16T10:04:08;5.43;;;2.00;;
37051;SDS011;22964;52.272;13.356;2024-01-16T10:06:34;3.15;;;1.90;;
37051;SDS011;22964;52.272;13.356;2024-01-16T10:09:02;3.35;;;1.80;;
37051;SDS011;22964;52.272;13.356;2024-01-16T10:11:28;3.67;;;2.00;;
37051;SDS011;22964;52.272;13.356;2024-01-16T10:13:55;3.50;;;1.65;;
37051;SDS011;22964;52.272;13.356;2024-01-16T10:16:23;3.15;;;1.85;;
37051;SDS011;22964;52.272;13.356;2024-01-16T10:19:08;4.30;;;1.90;;
37051;SDS011;22964;52.272;13.356;2024-01-16T10:21:35;3.13;;;1.77;;
37051;SDS011;22964;52.272;13.356;2024-01-16T10:24:10;6.30;;;1.90;;
37051;SDS011;22964;52.272;13.356;2024-01-16T10:26:38;4.32;;;1.80;;
37051;SDS011;22964;52.272;13.356;2024-01-16T10:29:03;5.13;;;2.10;;
37051;SDS011;22964;52.272;13.356;2024-01-16T10:31:34;6.38;;;2.00;;
37051;SDS011;22964;52.272;13.356;2024-01-16T10:34:00;4.45;;;1.70;;
37051;SDS011;22964;52.272;13.356;2024-01-16T10:36:25;3.85;;;2.00;;
37051;SDS011;22964;52.272;13.356;2024-01-16T10:38:51;6.07;;;1.80;;
37051;SDS011;22964;52.272;13.356;2024-01-16T10:41:23;4.07;;;2.00;;
37051;SDS011;22964;52.272;13.356;2024-01-16T10:44:04;4.43;;;1.85;;
37051;SDS011;22964;52.272;13.356;2024-01-16T10:46:32;4.10;;;1.88;;
37051;SDS011;22964;52.272;13.356;2024-01-16T10:49:02;4.80;;;1.95;;
37051;SDS011;22964;52.272;13.356;2024-01-16T10:51:29;6.32;;;2.20;;
37051;SDS011;22964;52.272;13.356;2024-01-16T10:53:59;3.67;;;1.88;;
37051;SDS011;22964;52.272;13.356;2024-01-16T10:56:28;5.45;;;2.20;;
37051;SDS011;22964;52.272;13.356;2024-01-16T11:01:50;3.72;;;1.92;;
37051;SDS011;22964;52.272;13.356;2024-01-16T11:04:20;6.07;;;2.13;;
37051;SDS011;22964;52.272;13.356;2024-01-16T11:06:51;4.30;;;2.22;;
37051;SDS011;22964;52.272;13.356;2024-01-16T11:09:18;5.03;;;2.03;;
37051;SDS011;22964;52.272;13.356;2024-01-16T11:11:44;4.55;;;2.00;;
37051;SDS011;22964;52.272;13.356;2024-01-16T11:14:12;6.53;;;1.85;;
37051;SDS011;22964;52.272;13.356;2024-01-16T11:16:38;6.53;;;2.53;;
37051;SDS011;22964;52.272;13.356;2024-01-16T11:19:05;4.85;;;2.33;;
37051;SDS011;22964;52.272;13.356;2024-01-16T11:21:33;6.38;;;2.72;;
37051;SDS011;22964;52.272;13.356;2024-01-16T11:24:01;4.45;;;2.80;;
37051;SDS011;22964;52.272;13.356;2024-01-16T11:26:31;6.93;;;3.42;;
37051;SDS011;22964;52.272;13.356;2024-01-16T11:28:59;9.60;;;4.75;;
37051;SDS011;22964;52.272;13.356;2024-01-16T11:31:32;7.07;;;2.92;;
37051;SDS011;22964;52.272;13.356;2024-01-16T11:34:00;8.85;;;2.85;;
37051;SDS011;22964;52.272;13.356;2024-01-16T11:39:23;7.50;;;3.15;;
37051;SDS011;22964;52.272;13.356;2024-01-16T11:41:56;7.13;;;2.58;;
37051;SDS011;22964;52.272;13.356;2024-01-16T11:44:36;8.32;;;2.30;;
37051;SDS011;22964;52.272;13.356;2024-01-16T11:47:19;6.15;;;2.60;;
37051;SDS011;22964;52.272;13.356;2024-01-16T11:50:08;7.25;;;2.70;;
37051;SDS011;22964;52.272;13.356;2024-01-16T11:52:42;4.80;;;2.40;;
37051;SDS011;22964;52.272;13.356;2024-01-16T11:55:28;9.13;;;2.65;;
37051;SDS011;22964;52.272;13.356;2024-01-16T12:00:47;4.80;;;2.50;;
37051;SDS011;22964;52.272;13.356;2024-01-16T12:03:18;6.37;;;2.63;;
37051;SDS011;22964;52.272;13.356;2024-01-16T12:05:58;6.97;;;2.60;;
37051;SDS011;22964;52.272;13.356;2024-01-16T12:08:25;6.65;;;2.85;;
37051;SDS011;22964;52.272;13.356;2024-01-16T12:10:51;3.65;;;2.20;;
37051;SDS011;22964;52.272;13.356;2024-01-16T12:13:17;6.70;;;2.65;;
37051;SDS011;22964;52.272;13.356;2024-01-16T12:15:43;5.93;;;2.28;;
37051;SDS011;22964;52.272;13.356;2024-01-16T12:18:09;7.88;;;2.60;;
37051;SDS011;22964;52.272;13.356;2024-01-16T12:20:35;8.27;;;2.70;;
37051;SDS011;22964;52.272;13.356;2024-01-16T12:25:29;7.97;;;2.50;;
37051;SDS011;22964;52.272;13.356;2024-01-16T12:27:56;5.97;;;2.60;;
37051;SDS011;22964;52.272;13.356;2024-01-16T12:30:26;5.03;;;2.25;;
37051;SDS011;22964;52.272;13.356;2024-01-16T12:33:06;4.90;;;2.30;;
37051;SDS011;22964;52.272;13.356;2024-01-16T12:35:36;5.75;;;2.28;;
37051;SDS011;22964;52.272;13.356;2024-01-16T12:38:06;7.30;;;2.50;;
37051;SDS011;22964;52.272;13.356;2024-01-16T12:40:36;5.30;;;2.22;;
37051;SDS011;22964;52.272;13.356;2024-01-16T12:43:05;5.18;;;2.20;;
37051;SDS011;22964;52.272;13.356;2024-01-16T12:45:34;6.80;;;2.33;;
37051;SDS011;22964;52.272;13.356;2024-01-16T12:48:01;7.63;;;2.50;;
37051;SDS011;22964;52.272;13.356;2024-01-16T12:50:31;5.38;;;2.13;;
37051;SDS011;22964;52.272;13.356;2024-01-16T12:55:30;5.25;;;2.08;;
37051;SDS011;22964;52.272;13.356;2024-01-16T13:00:45;6.63;;;2.05;;
37051;SDS011;22964;52.272;13.356;2024-01-16T13:03:20;8.15;;;2.10;;
37051;SDS011;22964;52.272;13.356;2024-01-16T13:05:57;6.00;;;2.13;;
37051;SDS011;22964;52.272;13.356;2024-01-16T13:08:26;4.00;;;1.70;;
37051;SDS011;22964;52.272;13.356;2024-01-16T13:11:04;8.13;;;2.00;;
37051;SDS011;22964;52.272;13.356;2024-01-16T13:13:30;9.63;;;2.33;;
37051;SDS011;22964;52.272;13.356;2024-01-16T13:15:57;5.28;;;1.75;;
37051;SDS011;22964;52.272;13.356;2024-01-16T13:18:24;6.22;;;2.00;;
37051;SDS011;22964;52.272;13.356;2024-01-16T13:20:52;6.45;;;1.67;;
37051;SDS011;22964;52.272;13.356;2024-01-16T13:23:18;4.65;;;2.00;;
37051;SDS011;22964;52.272;13.356;2024-01-16T13:25:45;4.68;;;1.70;;
37051;SDS011;22964;52.272;13.356;2024-01-16T13:28:16;5.13;;;1.70;;
37051;SDS011;22964;52.272;13.356;2024-01-16T13:30:43;3.45;;;1.65;;
37051;SDS011;22964;52.272;13.356;2024-01-16T13:33:10;5.90;;;1.67;;
37051;SDS011;22964;52.272;13.356;2024-01-16T13:35:40;4.25;;;1.58;;
37051;SDS011;22964;52.272;13.356;2024-01-16T13:38:07;7.90;;;1.88;;
37051;SDS011;22964;52.272;13.356;2024-01-16T13:40:35;3.90;;;1.48;;
37051;SDS011;22964;52.272;13.356;2024-01-16T13:43:02;6.57;;;2.10;;
37051;SDS011;22964;52.272;13.356;2024-01-16T13:45:28;4.45;;;1.95;;
37051;SDS011;22964;52.272;13.356;2024-01-16T13:47:55;5.60;;;2.00;;
37051;SDS011;22964;52.272;13.356;2024-01-16T13:50:21;4.22;;;1.70;;
37051;SDS011;22964;52.272;13.356;2024-01-16T13:52:47;4.65;;;1.73;;
37051;SDS011;22964;52.272;13.356;2024-01-16T13:55:13;5.68;;;1.88;;
37051;SDS011;22964;52.272;13.356;2024-01-16T13:57:38;6.10;;;1.80;;
37051;SDS011;22964;52.272;13.356;2024-01-16T14:00:06;5.18;;;2.33;;
37051;SDS011;22964;52.272;13.356;2024-01-16T14:02:38;5.32;;;1.80;;
37051;SDS011;22964;52.272;13.356;2024-01-16T14:05:07;6.15;;;2.13;;
37051;SDS011;22964;52.272;13.356;2024-01-16T14:07:43;5.47;;;1.80;;
37051;SDS011;22964;52.272;13.356;2024-01-16T14:10:13;6.03;;;1.75;;
37051;SDS011;22964;52.272;13.356;2024-01-16T14:12:40;4.43;;;1.60;;
37051;SDS011;22964;52.272;13.356;2024-01-16T14:15:13;6.13;;;1.58;;
37051;SDS011;22964;52.272;13.356;2024-01-16T14:17:50;3.13;;;1.50;;
37051;SDS011;22964;52.272;13.356;2024-01-16T14:20:17;5.03;;;1.73;;
37051;SDS011;22964;52.272;13.356;2024-01-16T14:22:58;6.40;;;1.75;;
37051;SDS011;22964;52.272;13.356;2024-01-16T14:25:25;8.43;;;2.78;;
37051;SDS011;22964;52.272;13.356;2024-01-16T14:30:34;6.45;;;1.83;;
37051;SDS011;22964;52.272;13.356;2024-01-16T14:33:01;8.32;;;1.83;;
37051;SDS011;22964;52.272;13.356;2024-01-16T14:35:27;4.15;;;1.70;;
37051;SDS011;22964;52.272;13.356;2024-01-16T14:37:53;4.40;;;2.00;;
37051;SDS011;22964;52.272;13.356;2024-01-16T14:40:19;5.82;;;2.10;;
37051;SDS011;22964;52.272;13.356;2024-01-16T14:42:54;7.93;;;1.90;;
37051;SDS011;22964;52.272;13.356;2024-01-16T14:45:22;7.95;;;1.75;;
37051;SDS011;22964;52.272;13.356;2024-01-16T14:47:48;8.45;;;1.70;;
37051;SDS011;22964;52.272;13.356;2024-01-16T14:50:16;3.97;;;1.60;;
37051;SDS011;22964;52.272;13.356;2024-01-16T14:52:46;6.47;;;1.60;;
37051;SDS011;22964;52.272;13.356;2024-01-16T14:55:13;5.95;;;2.20;;
37051;SDS011;22964;52.272;13.356;2024-01-16T14:57:39;4.10;;;1.90;;
37051;SDS011;22964;52.272;13.356;2024-01-16T15:00:11;5.10;;;1.85;;
37051;SDS011;22964;52.272;13.356;2024-01-16T15:02:44;5.90;;;1.80;;